KOFF

Offutt AFB Airport

Omaha, Nebraska, USA
METAR KOFF 151656Z AUTO 14004KT 10SM CLR 01/01 A3018 RMK AO2 SLP237 T00070007 $
Observed Flight Rules
Dec-15 @ 16:56 UTC (18 minutes ago) Visual Flight Rules
Wind Visibility Clouds
140° at 4 knots 10 miles
  • Clear skies
Temperatures Readings
Current 1°C / 34°F
Dewpoint 1°C / 34°F
Humidity 100%
Altimeter 30.18" Hg
Pressure 1023.7 hPa
Elevation 319
METAR KOFF 151656Z AUTO 14004KT 10SM CLR 01/01 A3018 RMK AO2 SLP237 T00070007 $
Observed Flight Rules
Dec-15 @ 16:56 UTC
(18 minutes ago)
VFR
Wind Visibility
140° at 4 knots 10 miles
Clouds
  • Clear skies
Temperature Dewpoint
1°C / 34°F 1°C / 34°F
Humidity Altimeter Pressure
100% 30.18" Hg 1023.7 hPa